Time;durP1;ratioP1;P1;durP2;ratioP2;P2;SDS_P1;SDS_P2;PMS_P1;PMS_P2;Temp;Humidity;BMP_temperature;BMP_pressure;BME280_temperature;BME280_humidity;BME280_pressure;Samples;Min_cycle;Max_cycle;Signal;HPM_P1;HPM_P2
2023/04/21 00:01:17;;;;;;;16.05;10.40;;;;;;;;;;5010218;28;20088;-75
2023/04/21 00:04:02;;;;;;;16.42;10.30;;;;;;;;;;5025005;28;20053;-77
2023/04/21 00:06:49;;;;;;;15.10;10.70;;;;;;;;;;5028317;28;20060;-75
2023/04/21 00:09:34;;;;;;;14.90;9.80;;;;;;;;;;5028628;28;20465;-76
2023/04/21 00:12:20;;;;;;;15.27;10.40;;;;;;;;;;5028549;28;20373;-76
2023/04/21 00:15:05;;;;;;;14.88;9.82;;;;;;;;;;5027474;28;20544;-76
2023/04/21 00:17:50;;;;;;;14.50;9.32;;;;;;;;;;5014351;28;20022;-76
2023/04/21 00:20:36;;;;;;;13.77;9.85;;;;;;;;;;5027359;28;20029;-76
2023/04/21 00:23:21;;;;;;;11.65;9.02;;;;;;;;;;5019841;28;20028;-75
2023/04/21 00:26:06;;;;;;;15.43;11.02;;;;;;;;;;5025525;28;20018;-75
2023/04/21 00:28:52;;;;;;;14.18;9.73;;;;;;;;;;5026716;28;20033;-75
2023/04/21 00:31:37;;;;;;;15.93;10.10;;;;;;;;;;5028682;28;20029;-74
2023/04/21 00:34:22;;;;;;;14.50;10.35;;;;;;;;;;5003997;28;20125;-74
2023/04/21 00:37:07;;;;;;;13.80;8.73;;;;;;;;;;5027616;28;20464;-74
2023/04/21 00:39:52;;;;;;;13.95;9.38;;;;;;;;;;5029217;28;20121;-76
2023/04/21 00:42:38;;;;;;;13.82;10.07;;;;;;;;;;5028737;28;20025;-77
2023/04/21 00:45:23;;;;;;;14.70;9.77;;;;;;;;;;5027932;28;20041;-77
2023/04/21 00:48:09;;;;;;;14.80;10.13;;;;;;;;;;5027912;28;20086;-77
2023/04/21 00:50:55;;;;;;;15.02;9.68;;;;;;;;;;5012484;28;20049;-76
2023/04/21 00:53:40;;;;;;;14.40;10.30;;;;;;;;;;5027916;28;20054;-77
2023/04/21 00:56:26;;;;;;;15.57;9.45;;;;;;;;;;5015535;28;20403;-75
2023/04/21 00:59:12;;;;;;;11.98;8.23;;;;;;;;;;5026967;28;20035;-75
2023/04/21 01:01:57;;;;;;;14.18;9.60;;;;;;;;;;5027801;28;20044;-75
2023/04/21 01:04:44;;;;;;;13.73;9.23;;;;;;;;;;5027631;28;20385;-77
2023/04/21 01:07:29;;;;;;;15.27;10.15;;;;;;;;;;5027287;28;20037;-76
2023/04/21 01:10:15;;;;;;;17.08;10.65;;;;;;;;;;5013446;28;20024;-75
2023/04/21 01:13:00;;;;;;;16.92;10.95;;;;;;;;;;5014802;28;20025;-75
2023/04/21 01:15:45;;;;;;;16.73;9.95;;;;;;;;;;5028677;28;20079;-75
2023/04/21 01:18:30;;;;;;;13.15;8.52;;;;;;;;;;5028060;28;20448;-74
2023/04/21 01:21:15;;;;;;;12.88;9.38;;;;;;;;;;5013792;28;20026;-73
2023/04/21 01:24:01;;;;;;;15.82;10.23;;;;;;;;;;5026502;28;20017;-75
2023/04/21 01:26:48;;;;;;;14.70;9.57;;;;;;;;;;5014597;28;20021;-76
2023/04/21 01:29:33;;;;;;;16.15;10.45;;;;;;;;;;5027606;28;20025;-75
2023/04/21 01:32:24;;;;;;;13.32;9.43;;;;;;;;;;5028197;28;20021;-74
2023/04/21 01:35:09;;;;;;;14.80;9.10;;;;;;;;;;5028131;28;20079;-75
2023/04/21 01:37:54;;;;;;;16.95;10.30;;;;;;;;;;5027202;28;20041;-74
2023/04/21 01:40:41;;;;;;;14.68;9.63;;;;;;;;;;5024956;28;20029;-75
2023/04/21 01:43:27;;;;;;;15.77;9.98;;;;;;;;;;5015930;28;20018;-71
2023/04/21 01:46:12;;;;;;;15.27;9.93;;;;;;;;;;5031290;28;20485;-71
2023/04/21 01:48:57;;;;;;;14.38;9.95;;;;;;;;;;5027468;28;20061;-72
2023/04/21 01:51:42;;;;;;;15.23;11.30;;;;;;;;;;5022982;28;20152;-73
2023/04/21 01:54:28;;;;;;;12.50;9.02;;;;;;;;;;5020822;28;20029;-71
2023/04/21 01:57:14;;;;;;;16.58;11.18;;;;;;;;;;5031913;28;20025;-70
2023/04/21 01:59:59;;;;;;;14.40;10.27;;;;;;;;;;5030676;28;20026;-73
2023/04/21 02:02:44;;;;;;;13.57;9.15;;;;;;;;;;5017062;28;20028;-71
2023/04/21 02:05:29;;;;;;;16.85;9.98;;;;;;;;;;5011519;28;20488;-73
2023/04/21 02:08:16;;;;;;;14.50;9.48;;;;;;;;;;5007743;28;20033;-73
2023/04/21 02:11:01;;;;;;;15.90;10.23;;;;;;;;;;5015071;28;20029;-72
2023/04/21 02:13:46;;;;;;;13.50;9.55;;;;;;;;;;5017206;28;20063;-72
2023/04/21 02:16:31;;;;;;;14.43;10.40;;;;;;;;;;5030909;28;20025;-75
2023/04/21 02:19:17;;;;;;;12.98;9.38;;;;;;;;;;5013795;28;20441;-72
2023/04/21 02:22:02;;;;;;;14.90;9.90;;;;;;;;;;5031027;28;20029;-75
2023/04/21 02:24:48;;;;;;;14.88;9.75;;;;;;;;;;5031487;28;20024;-72
2023/04/21 02:27:33;;;;;;;13.98;9.23;;;;;;;;;;5017956;28;20602;-72
2023/04/21 02:30:19;;;;;;;15.73;10.70;;;;;;;;;;5030780;28;20027;-73
2023/04/21 02:33:04;;;;;;;13.05;9.55;;;;;;;;;;5031341;28;20397;-73
2023/04/21 02:35:49;;;;;;;14.63;8.68;;;;;;;;;;5030738;28;20056;-78
2023/04/21 02:38:35;;;;;;;14.85;10.50;;;;;;;;;;5012303;28;20392;-76
2023/04/21 02:41:20;;;;;;;15.10;9.57;;;;;;;;;;5016510;28;20033;-75
2023/04/21 02:44:05;;;;;;;17.77;11.02;;;;;;;;;;5030397;28;20024;-74
2023/04/21 02:46:50;;;;;;;12.55;9.40;;;;;;;;;;5029999;28;20025;-76
2023/04/21 02:49:40;;;;;;;14.60;9.90;;;;;;;;;;5029863;28;20025;-75
2023/04/21 02:52:25;;;;;;;16.40;10.77;;;;;;;;;;5029084;28;20049;-76
2023/04/21 02:55:10;;;;;;;15.52;9.32;;;;;;;;;;5023821;28;20056;-73
2023/04/21 02:57:56;;;;;;;12.90;8.73;;;;;;;;;;5005030;28;20040;-76
2023/04/21 03:00:41;;;;;;;14.55;9.93;;;;;;;;;;5028932;28;20354;-76
2023/04/21 03:03:26;;;;;;;18.55;10.45;;;;;;;;;;5029821;28;20112;-75
2023/04/21 03:06:11;;;;;;;15.93;9.43;;;;;;;;;;5029811;28;20373;-76
2023/04/21 03:08:57;;;;;;;15.90;10.55;;;;;;;;;;5028509;28;20087;-76
2023/04/21 03:11:42;;;;;;;17.67;10.93;;;;;;;;;;5029566;28;20029;-74
2023/04/21 03:14:27;;;;;;;13.55;9.50;;;;;;;;;;5014400;28;20029;-70
2023/04/21 03:17:12;;;;;;;15.35;10.15;;;;;;;;;;5017089;28;20162;-71
2023/04/21 03:19:57;;;;;;;15.68;9.80;;;;;;;;;;5016025;28;20032;-71
2023/04/21 03:22:43;;;;;;;12.82;9.38;;;;;;;;;;5030330;28;20537;-71
2023/04/21 03:25:28;;;;;;;15.00;10.32;;;;;;;;;;5030532;28;20531;-71
2023/04/21 03:28:14;;;;;;;15.18;9.85;;;;;;;;;;5030485;28;20013;-72
2023/04/21 03:30:59;;;;;;;14.35;10.20;;;;;;;;;;5029674;28;20073;-75
2023/04/21 03:33:45;;;;;;;16.77;11.13;;;;;;;;;;5021515;28;20033;-71
2023/04/21 03:36:30;;;;;;;15.90;9.82;;;;;;;;;;5029951;28;20037;-72
2023/04/21 03:39:15;;;;;;;13.98;9.23;;;;;;;;;;5024730;28;20522;-73
2023/04/21 03:42:00;;;;;;;15.77;11.00;;;;;;;;;;5029861;28;20100;-72
2023/04/21 03:44:46;;;;;;;14.40;9.40;;;;;;;;;;5030276;28;20025;-72
2023/04/21 03:47:31;;;;;;;15.68;10.07;;;;;;;;;;5029884;28;20026;-72
2023/04/21 03:50:16;;;;;;;15.77;10.30;;;;;;;;;;5024108;28;20492;-75
2023/04/21 03:53:01;;;;;;;14.18;10.10;;;;;;;;;;5013350;28;20064;-75
2023/04/21 03:55:49;;;;;;;13.50;9.82;;;;;;;;;;5028197;28;20029;-75
2023/04/21 03:58:34;;;;;;;14.75;10.18;;;;;;;;;;5029268;28;20104;-75
2023/04/21 04:01:20;;;;;;;14.45;9.63;;;;;;;;;;5028726;28;20029;-77
2023/04/21 04:04:06;;;;;;;15.80;10.98;;;;;;;;;;5026732;28;20117;-75
2023/04/21 04:06:51;;;;;;;13.80;9.27;;;;;;;;;;5028616;28;20029;-78
2023/04/21 04:09:36;;;;;;;16.73;10.38;;;;;;;;;;5027704;28;20587;-75
2023/04/21 04:12:21;;;;;;;14.25;9.55;;;;;;;;;;5014627;28;20044;-76
2023/04/21 04:15:07;;;;;;;16.50;11.13;;;;;;;;;;5029075;28;20043;-76
2023/04/21 04:17:52;;;;;;;16.33;10.52;;;;;;;;;;5014982;28;20017;-76
2023/04/21 04:20:37;;;;;;;15.30;9.23;;;;;;;;;;5027686;28;20075;-76
2023/04/21 04:23:22;;;;;;;14.90;10.48;;;;;;;;;;5010046;28;20030;-76
2023/04/21 04:26:08;;;;;;;17.33;11.13;;;;;;;;;;5028479;28;20032;-73
2023/04/21 04:28:55;;;;;;;16.15;10.57;;;;;;;;;;5029601;28;20069;-75
2023/04/21 04:31:40;;;;;;;14.65;10.20;;;;;;;;;;5024204;28;20120;-75
2023/04/21 04:34:25;;;;;;;16.23;10.82;;;;;;;;;;5003392;28;20034;-75
2023/04/21 04:37:12;;;;;;;15.90;11.02;;;;;;;;;;5031256;28;20391;-76
2023/04/21 04:39:58;;;;;;;14.02;9.50;;;;;;;;;;5019763;28;20040;-75
2023/04/21 04:42:45;;;;;;;18.08;10.73;;;;;;;;;;5029002;28;20033;-75
2023/04/21 04:45:31;;;;;;;14.20;10.27;;;;;;;;;;5027785;28;20400;-70
2023/04/21 04:48:17;;;;;;;16.30;10.52;;;;;;;;;;5014285;28;20432;-75
2023/04/21 04:51:02;;;;;;;15.10;9.35;;;;;;;;;;5015979;28;20053;-74
2023/04/21 04:53:47;;;;;;;15.75;10.00;;;;;;;;;;5027808;28;20124;-74
2023/04/21 04:56:34;;;;;;;16.83;10.48;;;;;;;;;;5025971;28;20538;-75
2023/04/21 04:59:19;;;;;;;18.85;10.55;;;;;;;;;;5027788;28;20385;-77
2023/04/21 05:02:06;;;;;;;15.07;9.82;;;;;;;;;;5027923;28;20095;-76
2023/04/21 05:04:51;;;;;;;17.60;11.15;;;;;;;;;;5027079;28;20029;-73
2023/04/21 05:07:36;;;;;;;15.77;10.60;;;;;;;;;;5027725;28;20025;-70
2023/04/21 05:10:22;;;;;;;13.38;9.32;;;;;;;;;;5027330;28;20341;-72
2023/04/21 05:13:07;;;;;;;18.92;11.75;;;;;;;;;;4996215;28;20077;-72
2023/04/21 05:16:00;;;;;;;16.17;11.57;;;;;;;;;;5006183;28;20026;-74
2023/04/21 05:18:46;;;;;;;15.00;9.82;;;;;;;;;;5027065;28;20036;-74
2023/04/21 05:21:32;;;;;;;15.30;9.70;;;;;;;;;;5027962;28;20696;-77
2023/04/21 05:24:22;;;;;;;17.73;11.57;;;;;;;;;;5028037;28;20029;-76
2023/04/21 05:27:07;;;;;;;17.95;11.65;;;;;;;;;;5019788;28;20044;-75
2023/04/21 05:29:53;;;;;;;17.23;11.10;;;;;;;;;;5028415;28;20372;-75
2023/04/21 05:32:39;;;;;;;15.32;9.73;;;;;;;;;;5017890;28;20042;-75
2023/04/21 05:35:24;;;;;;;18.13;10.95;;;;;;;;;;5012568;28;20025;-75
2023/04/21 05:38:09;;;;;;;16.60;10.55;;;;;;;;;;5028660;28;20108;-72
2023/04/21 05:40:55;;;;;;;16.17;10.23;;;;;;;;;;5003077;28;20027;-78
2023/04/21 05:43:40;;;;;;;17.75;10.93;;;;;;;;;;5015852;28;20035;-72
2023/04/21 05:46:25;;;;;;;15.90;10.55;;;;;;;;;;5028919;28;20026;-70
2023/04/21 05:49:10;;;;;;;14.32;10.05;;;;;;;;;;5022520;28;20501;-71
2023/04/21 05:51:56;;;;;;;15.93;10.32;;;;;;;;;;5022650;28;20495;-70
2023/04/21 05:54:41;;;;;;;19.10;12.80;;;;;;;;;;5027568;28;20134;-72
2023/04/21 05:57:26;;;;;;;17.75;11.88;;;;;;;;;;5027076;28;20038;-76
2023/04/21 06:00:12;;;;;;;16.98;11.55;;;;;;;;;;5027398;28;20469;-77
2023/04/21 06:02:57;;;;;;;18.70;12.90;;;;;;;;;;5016224;28;20071;-75
2023/04/21 06:05:42;;;;;;;17.77;11.65;;;;;;;;;;5026727;28;20540;-76
2023/04/21 06:08:27;;;;;;;18.42;11.43;;;;;;;;;;5027616;28;20201;-76
2023/04/21 06:11:13;;;;;;;19.88;12.82;;;;;;;;;;5026090;28;20469;-76
2023/04/21 06:13:58;;;;;;;20.17;12.23;;;;;;;;;;5027344;28;20056;-76
2023/04/21 06:16:43;;;;;;;19.90;13.00;;;;;;;;;;5027325;28;20026;-76
2023/04/21 06:19:29;;;;;;;22.20;13.48;;;;;;;;;;5026840;28;20087;-75
2023/04/21 06:22:14;;;;;;;17.92;13.07;;;;;;;;;;5027845;28;20501;-74
2023/04/21 06:24:59;;;;;;;19.92;12.57;;;;;;;;;;5032152;28;20018;-74
2023/04/21 06:27:45;;;;;;;20.60;14.18;;;;;;;;;;5009474;28;20025;-73
2023/04/21 06:30:30;;;;;;;22.05;13.75;;;;;;;;;;5031822;28;20029;-75
2023/04/21 06:33:15;;;;;;;22.48;14.82;;;;;;;;;;5017717;28;20113;-74
2023/04/21 06:36:00;;;;;;;20.00;14.43;;;;;;;;;;5030292;28;20021;-76
2023/04/21 06:38:46;;;;;;;24.10;16.50;;;;;;;;;;5030969;28;20029;-74
2023/04/21 06:41:31;;;;;;;22.45;14.95;;;;;;;;;;5030188;28;20040;-74
2023/04/21 06:44:17;;;;;;;22.25;15.77;;;;;;;;;;5019285;28;20021;-72
2023/04/21 06:47:02;;;;;;;24.50;15.75;;;;;;;;;;5031368;28;20022;-74
2023/04/21 06:49:47;;;;;;;22.10;14.63;;;;;;;;;;5019745;28;20041;-73
2023/04/21 06:52:32;;;;;;;24.73;14.73;;;;;;;;;;5017036;28;20055;-76
2023/04/21 06:55:18;;;;;;;23.15;15.13;;;;;;;;;;5015931;28;20028;-77
2023/04/21 06:58:03;;;;;;;22.75;13.77;;;;;;;;;;5029073;28;20120;-75
2023/04/21 07:00:49;;;;;;;21.08;14.30;;;;;;;;;;5028506;28;20163;-76
2023/04/21 07:03:34;;;;;;;25.15;16.05;;;;;;;;;;5015117;28;20107;-77
2023/04/21 07:06:19;;;;;;;24.77;16.73;;;;;;;;;;5028324;28;20502;-76
2023/04/21 07:09:04;;;;;;;21.08;15.15;;;;;;;;;;5029491;28;20387;-76
2023/04/21 07:11:50;;;;;;;24.10;15.27;;;;;;;;;;5029413;28;20040;-76
2023/04/21 07:14:35;;;;;;;23.15;14.88;;;;;;;;;;5029724;28;20031;-71
2023/04/21 07:17:20;;;;;;;22.83;15.20;;;;;;;;;;5030034;28;20036;-72
2023/04/21 07:20:06;;;;;;;19.75;14.07;;;;;;;;;;5030454;28;20461;-72
2023/04/21 07:22:52;;;;;;;21.00;15.32;;;;;;;;;;5030195;28;20032;-72
2023/04/21 07:25:37;;;;;;;21.05;14.55;;;;;;;;;;5030652;28;20029;-71
2023/04/21 07:28:22;;;;;;;21.42;15.60;;;;;;;;;;5027249;28;20081;-73
2023/04/21 07:31:07;;;;;;;18.80;13.15;;;;;;;;;;5030120;28;20642;-75
2023/04/21 07:33:52;;;;;;;15.52;11.70;;;;;;;;;;5028802;28;20113;-77
2023/04/21 07:36:38;;;;;;;20.40;13.38;;;;;;;;;;5015896;28;20036;-78
2023/04/21 07:39:23;;;;;;;20.50;12.85;;;;;;;;;;5028937;28;20052;-77
2023/04/21 07:42:09;;;;;;;17.83;11.32;;;;;;;;;;5027173;28;20029;-77
2023/04/21 07:44:56;;;;;;;18.95;12.57;;;;;;;;;;5028825;28;20499;-76
2023/04/21 07:47:41;;;;;;;16.02;11.43;;;;;;;;;;5031380;28;20033;-75
2023/04/21 07:50:26;;;;;;;17.05;11.65;;;;;;;;;;5016165;28;20037;-72
2023/04/21 07:53:12;;;;;;;15.63;10.52;;;;;;;;;;5029971;28;20439;-70
2023/04/21 07:55:57;;;;;;;16.58;10.68;;;;;;;;;;5025390;28;20029;-71
2023/04/21 07:58:42;;;;;;;15.82;10.52;;;;;;;;;;5028746;28;20031;-74
2023/04/21 08:01:27;;;;;;;16.15;10.98;;;;;;;;;;5029427;28;20040;-70
2023/04/21 08:04:13;;;;;;;13.73;10.30;;;;;;;;;;5013612;28;20036;-70
2023/04/21 08:06:58;;;;;;;13.40;9.85;;;;;;;;;;5029475;28;20057;-75
2023/04/21 08:09:43;;;;;;;15.98;10.95;;;;;;;;;;5027623;28;20021;-78
2023/04/21 08:12:28;;;;;;;13.23;10.35;;;;;;;;;;4998829;28;20042;-76
2023/04/21 08:15:14;;;;;;;13.05;9.25;;;;;;;;;;5026521;28;20033;-76
2023/04/21 08:17:59;;;;;;;12.38;9.20;;;;;;;;;;5025908;28;20026;-78
2023/04/21 08:20:46;;;;;;;11.80;8.90;;;;;;;;;;5025294;28;20041;-76
2023/04/21 08:23:31;;;;;;;13.13;8.95;;;;;;;;;;5030004;28;20021;-75
2023/04/21 08:26:20;;;;;;;11.25;8.65;;;;;;;;;;5025702;28;20083;-73
2023/04/21 08:29:08;;;;;;;14.20;10.27;;;;;;;;;;5007358;28;20048;-78
2023/04/21 08:31:54;;;;;;;10.43;7.80;;;;;;;;;;5003016;28;20284;-77
2023/04/21 08:34:39;;;;;;;12.75;8.27;;;;;;;;;;5026300;28;20044;-76
2023/04/21 08:37:24;;;;;;;13.18;7.90;;;;;;;;;;5025819;28;20061;-77
2023/04/21 08:40:10;;;;;;;9.88;7.88;;;;;;;;;;5026410;28;20067;-76
2023/04/21 08:42:55;;;;;;;10.80;8.10;;;;;;;;;;5025731;28;20093;-73
2023/04/21 08:45:42;;;;;;;11.10;8.07;;;;;;;;;;5028697;28;20029;-71
2023/04/21 08:48:28;;;;;;;11.73;8.95;;;;;;;;;;5029118;28;20036;-71
2023/04/21 08:51:19;;;;;;;10.43;8.07;;;;;;;;;;5016564;28;20054;-71
2023/04/21 08:54:05;;;;;;;11.07;8.52;;;;;;;;;;5013684;28;20091;-70
2023/04/21 08:56:50;;;;;;;11.70;8.88;;;;;;;;;;5013686;28;20556;-71
2023/04/21 08:59:36;;;;;;;13.55;10.52;;;;;;;;;;4999813;28;20101;-71
2023/04/21 09:02:21;;;;;;;12.55;9.18;;;;;;;;;;5013792;28;20721;-78
2023/04/21 09:05:06;;;;;;;12.32;9.18;;;;;;;;;;5028255;28;20119;-73
2023/04/21 09:08:11;;;;;;;12.25;9.13;;;;;;;;;;5014617;28;20052;-73
2023/04/21 09:10:57;;;;;;;12.00;9.40;;;;;;;;;;5026689;28;20036;-70
2023/04/21 09:13:43;;;;;;;12.13;8.68;;;;;;;;;;5027133;28;20075;-74
2023/04/21 09:16:30;;;;;;;9.65;7.05;;;;;;;;;;5028609;28;20026;-71
2023/04/21 09:19:15;;;;;;;10.05;7.35;;;;;;;;;;5009977;28;20416;-74
2023/04/21 09:22:00;;;;;;;12.10;8.80;;;;;;;;;;5013597;28;20067;-73
2023/04/21 09:24:55;;;;;;;10.90;7.78;;;;;;;;;;5027327;28;20029;-74
2023/04/21 09:27:41;;;;;;;13.63;8.05;;;;;;;;;;5012648;28;20061;-74
2023/04/21 09:30:26;;;;;;;11.40;8.85;;;;;;;;;;5013512;28;20388;-75
2023/04/21 09:33:16;;;;;;;11.00;7.40;;;;;;;;;;5025371;28;20025;-74
2023/04/21 09:36:02;;;;;;;10.75;8.02;;;;;;;;;;5027615;28;20053;-74
2023/04/21 09:38:48;;;;;;;9.85;6.72;;;;;;;;;;5020040;28;20032;-72
2023/04/21 09:41:33;;;;;;;8.70;6.80;;;;;;;;;;5013598;28;20123;-72
2023/04/21 09:44:19;;;;;;;8.93;6.45;;;;;;;;;;5028649;28;20159;-71
2023/04/21 09:47:07;;;;;;;9.57;6.15;;;;;;;;;;5028468;28;20018;-71
2023/04/21 09:49:53;;;;;;;11.83;7.47;;;;;;;;;;5016106;28;20465;-73
2023/04/21 09:52:39;;;;;;;9.43;5.45;;;;;;;;;;5014640;28;20464;-73
2023/04/21 09:55:28;;;;;;;9.43;5.80;;;;;;;;;;5014429;28;20030;-72
2023/04/21 09:58:15;;;;;;;10.98;6.20;;;;;;;;;;5003089;28;20030;-74
2023/04/21 10:01:02;;;;;;;7.97;5.22;;;;;;;;;;5027509;28;20032;-73
2023/04/21 10:03:47;;;;;;;10.65;5.78;;;;;;;;;;5028838;28;20029;-74
2023/04/21 10:06:33;;;;;;;8.38;5.65;;;;;;;;;;5032093;28;20029;-74
2023/04/21 10:09:20;;;;;;;7.93;5.80;;;;;;;;;;5031533;28;20481;-74
2023/04/21 10:12:06;;;;;;;7.28;4.90;;;;;;;;;;5017564;28;20163;-73
2023/04/21 10:14:52;;;;;;;8.13;5.25;;;;;;;;;;5006263;28;20096;-74
2023/04/21 10:17:37;;;;;;;6.63;4.60;;;;;;;;;;5031597;28;20021;-71
2023/04/21 10:20:22;;;;;;;8.70;5.38;;;;;;;;;;5011915;28;20026;-72
2023/04/21 10:23:08;;;;;;;7.25;5.05;;;;;;;;;;5028647;28;20032;-71
2023/04/21 10:25:59;;;;;;;10.27;4.88;;;;;;;;;;5030519;28;20391;-72
2023/04/21 10:28:58;;;;;;;11.75;5.10;;;;;;;;;;5029524;28;20026;-72
2023/04/21 10:31:51;;;;;;;9.32;5.45;;;;;;;;;;5027413;28;20030;-71
2023/04/21 10:34:36;;;;;;;8.88;5.93;;;;;;;;;;5021553;28;20045;-73
2023/04/21 10:37:22;;;;;;;11.00;6.13;;;;;;;;;;5022163;28;20021;-76
2023/04/21 10:40:27;;;;;;;7.15;4.50;;;;;;;;;;5029785;28;20676;-74
2023/04/21 10:43:31;;;;;;;7.90;5.15;;;;;;;;;;5029578;28;20057;-75
2023/04/21 10:46:35;;;;;;;10.85;5.70;;;;;;;;;;5016478;28;20033;-74
2023/04/21 10:49:24;;;;;;;7.72;5.13;;;;;;;;;;5023366;28;20386;-75
2023/04/21 10:52:11;;;;;;;;;;;;;;;;;;5010276;28;20496;-77
2023/04/21 10:55:11;;;;;;;6.90;4.95;;;;;;;;;;5009260;28;20279;-71
2023/04/21 10:57:58;;;;;;;10.20;6.03;;;;;;;;;;5000618;28;20022;-70
2023/04/21 11:00:43;;;;;;;7.18;5.00;;;;;;;;;;5031157;28;20024;-72
2023/04/21 11:03:33;;;;;;;8.98;5.13;;;;;;;;;;5031218;28;20025;-72
2023/04/21 11:06:18;;;;;;;8.18;5.93;;;;;;;;;;5030034;28;20128;-72
2023/04/21 11:09:03;;;;;;;11.35;6.38;;;;;;;;;;5017080;28;20061;-72
2023/04/21 11:11:56;;;;;;;8.48;6.18;;;;;;;;;;5030297;28;20057;-73
2023/04/21 11:14:42;;;;;;;9.43;6.70;;;;;;;;;;5028595;28;20036;-78
2023/04/21 11:17:27;;;;;;;9.50;6.28;;;;;;;;;;5029602;28;20049;-77
2023/04/21 11:20:13;;;;;;;8.60;6.50;;;;;;;;;;5029797;28;20126;-76
2023/04/21 11:22:58;;;;;;;8.85;5.75;;;;;;;;;;5030787;28;20018;-78
2023/04/21 11:25:45;;;;;;;10.25;5.93;;;;;;;;;;5030788;28;20021;-78
2023/04/21 11:28:30;;;;;;;10.27;6.43;;;;;;;;;;5017863;28;20034;-77
2023/04/21 11:31:15;;;;;;;7.53;5.43;;;;;;;;;;5029948;28;20598;-76
2023/04/21 11:34:04;;;;;;;9.75;6.25;;;;;;;;;;5017240;28;20032;-80
2023/04/21 11:36:49;;;;;;;9.05;6.32;;;;;;;;;;5029233;28;20113;-77
2023/04/21 11:39:34;;;;;;;9.30;5.60;;;;;;;;;;5030434;28;20026;-76
2023/04/21 11:42:21;;;;;;;9.98;5.95;;;;;;;;;;5030493;28;20083;-80
2023/04/21 11:45:06;;;;;;;9.20;4.82;;;;;;;;;;5029315;28;20045;-77
2023/04/21 11:48:11;;;;;;;7.47;5.43;;;;;;;;;;5030395;28;20025;-72
2023/04/21 11:50:56;;;;;;;10.98;6.30;;;;;;;;;;5015651;28;20496;-73
2023/04/21 11:53:41;;;;;;;9.88;5.75;;;;;;;;;;5029396;28;20032;-73
2023/04/21 11:56:26;;;;;;;6.88;4.78;;;;;;;;;;5006751;28;20056;-73
2023/04/21 11:59:13;;;;;;;8.50;5.32;;;;;;;;;;5028602;28;20468;-71
2023/04/21 12:01:58;;;;;;;12.32;5.32;;;;;;;;;;5016381;28;20087;-73
2023/04/21 12:04:55;;;;;;;10.23;6.53;;;;;;;;;;5016075;28;20057;-72
2023/04/21 12:07:42;;;;;;;8.48;6.20;;;;;;;;;;5029122;28;20032;-76
2023/04/21 12:10:27;;;;;;;7.72;5.40;;;;;;;;;;5016097;28;20051;-73
2023/04/21 12:13:20;;;;;;;9.15;6.18;;;;;;;;;;5018205;28;20116;-72
2023/04/21 12:16:06;;;;;;;9.73;5.40;;;;;;;;;;5027238;28;20484;-75
2023/04/21 12:18:51;;;;;;;7.90;5.20;;;;;;;;;;5029798;28;20029;-75
2023/04/21 12:21:37;;;;;;;10.23;5.25;;;;;;;;;;5029356;28;20030;-74
2023/04/21 12:24:22;;;;;;;8.48;4.95;;;;;;;;;;5014716;28;20114;-74
2023/04/21 12:27:08;;;;;;;7.68;5.13;;;;;;;;;;5028897;28;20027;-73
2023/04/21 12:29:53;;;;;;;9.27;5.50;;;;;;;;;;5027119;28;20119;-74
2023/04/21 12:32:38;;;;;;;11.70;5.55;;;;;;;;;;5017730;28;20037;-76
2023/04/21 12:35:24;;;;;;;7.55;4.97;;;;;;;;;;5012093;28;20033;-75
2023/04/21 12:38:09;;;;;;;8.43;5.55;;;;;;;;;;5028363;28;20040;-77
2023/04/21 12:40:55;;;;;;;7.20;4.60;;;;;;;;;;5017041;28;20022;-74
2023/04/21 12:43:40;;;;;;;8.98;5.50;;;;;;;;;;5028071;28;20134;-74
2023/04/21 12:46:26;;;;;;;8.32;5.60;;;;;;;;;;5026252;28;20402;-70
2023/04/21 12:49:11;;;;;;;6.35;4.32;;;;;;;;;;5022787;28;20108;-71
2023/04/21 12:51:56;;;;;;;8.00;5.05;;;;;;;;;;5023558;28;20512;-70
2023/04/21 12:54:43;;;;;;;7.07;4.43;;;;;;;;;;5027970;28;20547;-72
2023/04/21 12:57:30;;;;;;;12.27;4.80;;;;;;;;;;5027589;28;20025;-72
2023/04/21 13:00:16;;;;;;;5.85;4.13;;;;;;;;;;5026895;28;20078;-74
2023/04/21 13:03:01;;;;;;;7.25;4.40;;;;;;;;;;5025975;28;20040;-76
2023/04/21 13:05:46;;;;;;;7.30;4.38;;;;;;;;;;5012966;28;20045;-76
2023/04/21 13:08:32;;;;;;;6.50;4.47;;;;;;;;;;5018393;28;20030;-76
2023/04/21 13:11:17;;;;;;;8.38;4.32;;;;;;;;;;5008837;28;20030;-75
2023/04/21 13:14:05;;;;;;;9.30;4.15;;;;;;;;;;5026830;28;20168;-77
2023/04/21 13:16:51;;;;;;;9.68;5.10;;;;;;;;;;5005677;28;20045;-75
2023/04/21 13:19:36;;;;;;;6.07;4.20;;;;;;;;;;5027727;28;20028;-73
2023/04/21 13:22:22;;;;;;;6.30;4.20;;;;;;;;;;5028209;28;20539;-74
2023/04/21 13:25:07;;;;;;;6.38;4.15;;;;;;;;;;5018087;28;20029;-73
2023/04/21 13:27:52;;;;;;;6.03;3.70;;;;;;;;;;5027831;28;20029;-73
2023/04/21 13:30:38;;;;;;;5.22;4.00;;;;;;;;;;5013257;28;20094;-72
2023/04/21 13:33:23;;;;;;;7.00;3.95;;;;;;;;;;5016884;28;20619;-72
2023/04/21 13:36:09;;;;;;;7.47;4.25;;;;;;;;;;5013037;28;20481;-72
2023/04/21 13:38:55;;;;;;;5.63;4.03;;;;;;;;;;5026884;28;20033;-77
2023/04/21 13:41:40;;;;;;;6.50;4.03;;;;;;;;;;5029538;28;20025;-74
2023/04/21 13:44:26;;;;;;;6.95;4.28;;;;;;;;;;5013681;28;20030;-74
2023/04/21 13:47:11;;;;;;;5.85;3.85;;;;;;;;;;5026079;28;20117;-74
2023/04/21 13:49:56;;;;;;;5.95;3.50;;;;;;;;;;5015726;28;20022;-74
2023/04/21 13:52:41;;;;;;;5.00;3.40;;;;;;;;;;5000669;28;20077;-74
2023/04/21 13:55:27;;;;;;;6.43;3.55;;;;;;;;;;5023000;28;20082;-74
2023/04/21 13:58:14;;;;;;;5.60;3.63;;;;;;;;;;5027365;28;20480;-73
2023/04/21 14:00:59;;;;;;;6.13;3.53;;;;;;;;;;5026304;28;20024;-73
2023/04/21 14:03:44;;;;;;;5.78;3.55;;;;;;;;;;5013472;28;20529;-72
2023/04/21 14:06:30;;;;;;;4.93;3.35;;;;;;;;;;5013614;28;20062;-73
2023/04/21 14:09:15;;;;;;;4.88;3.65;;;;;;;;;;5012935;28;20476;-71
2023/04/21 14:12:02;;;;;;;5.53;3.65;;;;;;;;;;5006082;28;20103;-74
2023/04/21 14:14:47;;;;;;;4.45;3.20;;;;;;;;;;5004159;28;20021;-73
2023/04/21 14:17:33;;;;;;;5.45;2.83;;;;;;;;;;5026222;28;20037;-74
2023/04/21 14:20:18;;;;;;;6.63;3.47;;;;;;;;;;5013691;28;20036;-76
2023/04/21 14:23:04;;;;;;;5.65;3.63;;;;;;;;;;5026185;28;20061;-77
2023/04/21 14:25:49;;;;;;;4.97;3.03;;;;;;;;;;5024587;28;20076;-78
2023/04/21 14:28:35;;;;;;;5.13;2.90;;;;;;;;;;5014109;28;20064;-77
2023/04/21 14:31:20;;;;;;;3.65;3.20;;;;;;;;;;5025815;28;20509;-76
2023/04/21 14:34:05;;;;;;;4.57;2.97;;;;;;;;;;5027857;28;20127;-73
2023/04/21 14:36:51;;;;;;;4.80;2.80;;;;;;;;;;5026757;28;20022;-74
2023/04/21 14:39:36;;;;;;;4.80;3.75;;;;;;;;;;5012041;28;20274;-72
2023/04/21 14:42:21;;;;;;;9.98;3.17;;;;;;;;;;5011355;28;20036;-72
2023/04/21 14:45:07;;;;;;;4.97;3.22;;;;;;;;;;5009492;28;20694;-73
2023/04/21 14:47:52;;;;;;;4.40;2.53;;;;;;;;;;5025914;28;20472;-73
2023/04/21 14:50:37;;;;;;;4.68;2.30;;;;;;;;;;5013977;28;20556;-72
2023/04/21 14:53:23;;;;;;;5.60;2.22;;;;;;;;;;5030040;28;20475;-74
2023/04/21 14:56:08;;;;;;;2.83;1.88;;;;;;;;;;5021245;28;20032;-67
2023/04/21 14:58:53;;;;;;;2.67;1.70;;;;;;;;;;5035254;28;20475;-65
2023/04/21 15:01:39;;;;;;;3.08;2.08;;;;;;;;;;5029823;28;20025;-68
2023/04/21 15:04:24;;;;;;;2.42;1.83;;;;;;;;;;5028943;28;20108;-66
2023/04/21 15:07:09;;;;;;;4.93;2.30;;;;;;;;;;5030411;28;20449;-66
2023/04/21 15:09:55;;;;;;;2.60;1.95;;;;;;;;;;5029209;28;20009;-70
2023/04/21 15:12:40;;;;;;;3.38;1.95;;;;;;;;;;5030056;28;20064;-71
2023/04/21 15:15:25;;;;;;;4.68;2.00;;;;;;;;;;5032728;28;20029;-73
2023/04/21 15:18:11;;;;;;;4.00;2.70;;;;;;;;;;5029433;28;20032;-73
2023/04/21 15:20:56;;;;;;;3.45;2.53;;;;;;;;;;5029026;28;20484;-72
2023/04/21 15:23:41;;;;;;;2.80;2.22;;;;;;;;;;5015351;28;20064;-72
2023/04/21 15:26:29;;;;;;;3.50;2.35;;;;;;;;;;5027055;28;20087;-72
2023/04/21 15:29:14;;;;;;;3.60;2.00;;;;;;;;;;5028869;28;20041;-74
2023/04/21 15:31:59;;;;;;;2.78;2.13;;;;;;;;;;5023098;28;20044;-72
2023/04/21 15:34:44;;;;;;;3.75;2.17;;;;;;;;;;5031366;28;20390;-71
2023/04/21 15:37:30;;;;;;;2.92;2.13;;;;;;;;;;5015840;28;20029;-73
2023/04/21 15:40:15;;;;;;;3.58;2.60;;;;;;;;;;5015878;28;21466;-74
2023/04/21 15:43:00;;;;;;;4.40;2.38;;;;;;;;;;5028611;28;20499;-72
2023/04/21 15:45:45;;;;;;;4.22;2.55;;;;;;;;;;5027351;28;20025;-77
2023/04/21 15:48:31;;;;;;;3.78;2.00;;;;;;;;;;5012219;28;20033;-76
2023/04/21 15:51:17;;;;;;;3.65;1.98;;;;;;;;;;5010630;28;20060;-77
2023/04/21 15:54:03;;;;;;;3.67;2.58;;;;;;;;;;5013130;28;20052;-76
2023/04/21 15:56:49;;;;;;;4.20;2.35;;;;;;;;;;5026881;28;20025;-75
2023/04/21 15:59:34;;;;;;;2.83;2.30;;;;;;;;;;5027578;28;20075;-75
2023/04/21 16:02:19;;;;;;;4.32;2.60;;;;;;;;;;5025306;28;20416;-75
2023/04/21 16:05:05;;;;;;;3.88;2.45;;;;;;;;;;5027242;28;20505;-77
2023/04/21 16:07:50;;;;;;;5.95;2.53;;;;;;;;;;5027565;28;20087;-75
2023/04/21 16:10:35;;;;;;;5.10;2.47;;;;;;;;;;5026405;28;20473;-75
2023/04/21 16:13:20;;;;;;;6.57;3.38;;;;;;;;;;5013710;28;20037;-74
2023/04/21 16:16:05;;;;;;;2.95;2.25;;;;;;;;;;5027652;28;20033;-73
2023/04/21 16:18:51;;;;;;;4.55;2.88;;;;;;;;;;5025468;28;20534;-76
2023/04/21 16:21:36;;;;;;;2.47;2.03;;;;;;;;;;5025817;28;20096;-75